Time;durP1;ratioP1;P1;durP2;ratioP2;P2;SDS_P1;SDS_P2;PMS_P1;PMS_P2;Temp;Humidity;BMP_temperature;BMP_pressure;BME280_temperature;BME280_humidity;BME280_pressure;Samples;Min_cycle;Max_cycle;Signal;HPM_P1;HPM_P2
2022/02/22 00:00:17;;;;;;;7.03;5.80;;;6.90;99.90;;;;;;5082489;28;20307;-91
2022/02/22 00:02:45;;;;;;;7.15;4.78;;;6.80;99.90;;;;;;5104733;28;20180;-90
2022/02/22 00:05:12;;;;;;;9.02;5.55;;;6.80;99.90;;;;;;5096162;28;20256;-91
2022/02/22 00:07:39;;;;;;;6.07;4.10;;;6.80;99.90;;;;;;5096227;28;20584;-86
2022/02/22 00:10:07;;;;;;;7.88;4.43;;;6.70;99.90;;;;;;5095077;28;20184;-90
2022/02/22 00:12:32;;;;;;;7.18;4.90;;;6.70;99.90;;;;;;5094311;28;20267;-87
2022/02/22 00:15:00;;;;;;;8.10;4.40;;;6.70;99.90;;;;;;5096683;28;20238;-91
2022/02/22 00:17:26;;;;;;;7.30;5.63;;;6.70;99.90;;;;;;5078417;28;20196;-86
2022/02/22 00:19:52;;;;;;;6.50;5.53;;;6.70;99.90;;;;;;5096603;28;20764;-87
2022/02/22 00:22:18;;;;;;;7.60;5.67;;;6.60;99.90;;;;;;5095356;28;20235;-88
2022/02/22 00:24:43;;;;;;;7.47;5.80;;;6.60;99.90;;;;;;5079026;28;20559;-91
2022/02/22 00:27:09;;;;;;;18.63;11.13;;;6.60;99.90;;;;;;5078654;28;20235;-91
2022/02/22 00:29:35;;;;;;;19.50;10.77;;;6.50;99.90;;;;;;5078346;28;20210;-90
2022/02/22 00:32:01;;;;;;;11.53;8.97;;;6.50;99.90;;;;;;5097707;28;20177;-86
2022/02/22 00:34:27;;;;;;;10.57;7.38;;;6.50;99.90;;;;;;5104563;28;20253;-87
2022/02/22 00:36:53;;;;;;;8.27;6.40;;;6.50;99.90;;;;;;5076593;28;20271;-87
2022/02/22 00:39:18;;;;;;;10.90;6.70;;;6.40;99.90;;;;;;5076982;28;20239;-87
2022/02/22 00:41:44;;;;;;;11.20;7.40;;;6.40;99.90;;;;;;5094741;28;20191;-87
2022/02/22 00:44:09;;;;;;;10.80;6.47;;;6.40;99.90;;;;;;5077687;28;20180;-87
2022/02/22 00:46:35;;;;;;;9.17;6.50;;;6.40;99.90;;;;;;5095460;28;20204;-88
2022/02/22 00:49:01;;;;;;;7.97;6.57;;;6.30;99.90;;;;;;5095046;28;20211;-91
2022/02/22 00:51:27;;;;;;;6.57;5.60;;;6.30;99.90;;;;;;5095118;28;20214;-88
2022/02/22 00:53:52;;;;;;;7.43;6.47;;;6.30;99.90;;;;;;5095670;28;20420;-87
2022/02/22 00:56:18;;;;;;;7.83;5.70;;;6.30;99.90;;;;;;5095293;28;20518;-90
2022/02/22 00:58:44;;;;;;;6.67;4.73;;;6.30;99.90;;;;;;5077580;28;20251;-87
2022/02/22 01:01:14;;;;;;;8.33;5.37;;;6.20;99.90;;;;;;5094353;28;20169;-86
2022/02/22 01:03:39;;;;;;;11.23;6.80;;;6.20;99.90;;;;;;5095022;28;20715;-87
2022/02/22 01:06:05;;;;;;;8.57;6.60;;;6.20;99.90;;;;;;5076664;28;20181;-90
2022/02/22 01:08:32;;;;;;;7.73;6.20;;;6.20;99.90;;;;;;5079250;28;20266;-91
2022/02/22 01:10:58;;;;;;;8.65;6.70;;;6.10;99.90;;;;;;5113414;28;20655;-91
2022/02/22 01:13:24;;;;;;;9.63;6.90;;;6.10;99.90;;;;;;5098432;28;20330;-87
2022/02/22 01:15:50;;;;;;;5.63;4.90;;;6.10;99.90;;;;;;5093011;28;20405;-90
2022/02/22 01:18:16;;;;;;;8.07;5.60;;;6.00;99.90;;;;;;5093163;28;20287;-90
2022/02/22 01:20:42;;;;;;;6.72;4.97;;;6.00;99.90;;;;;;5094558;28;20180;-90
2022/02/22 01:23:08;;;;;;;6.30;4.60;;;5.90;99.90;;;;;;5093116;28;20199;-87
2022/02/22 01:25:34;;;;;;;6.90;5.07;;;5.90;99.90;;;;;;5093094;28;20910;-90
2022/02/22 01:27:59;;;;;;;8.70;6.03;;;5.90;99.90;;;;;;5095040;28;20291;-90
2022/02/22 01:30:25;;;;;;;10.00;6.90;;;5.90;99.90;;;;;;5099403;28;20168;-87
2022/02/22 01:32:51;;;;;;;8.23;5.23;;;5.80;99.90;;;;;;5094612;28;20192;-87
2022/02/22 01:35:16;;;;;;;6.97;4.83;;;5.80;99.90;;;;;;5094841;28;20305;-87
2022/02/22 01:37:42;;;;;;;11.00;6.00;;;5.70;99.90;;;;;;5094611;28;20207;-90
2022/02/22 01:40:09;;;;;;;10.43;5.27;;;5.70;99.90;;;;;;5095327;28;20223;-90
2022/02/22 01:42:35;;;;;;;8.13;5.45;;;5.70;99.90;;;;;;5094557;28;20196;-90
2022/02/22 01:45:02;;;;;;;8.43;6.53;;;5.70;99.90;;;;;;5095371;28;20224;-87
2022/02/22 01:47:28;;;;;;;9.98;6.00;;;5.70;99.90;;;;;;5104092;28;20274;-90
2022/02/22 01:49:54;;;;;;;14.57;6.70;;;5.70;99.90;;;;;;5095557;28;20200;-91
2022/02/22 01:52:19;;;;;;;8.00;5.80;;;5.70;99.90;;;;;;5094168;28;20283;-89
2022/02/22 01:54:47;;;;;;;8.53;6.50;;;5.70;99.90;;;;;;5093030;28;20180;-87
2022/02/22 01:57:13;;;;;;;9.55;6.80;;;5.70;99.90;;;;;;5093069;28;20188;-91
2022/02/22 01:59:41;;;;;;;12.45;7.35;;;5.60;99.90;;;;;;5093235;28;20208;-90
2022/02/22 02:02:06;;;;;;;12.52;7.88;;;5.60;99.90;;;;;;5092466;28;20561;-91
2022/02/22 02:04:32;;;;;;;11.97;7.33;;;5.50;99.90;;;;;;5094352;28;20181;-87
2022/02/22 02:06:59;;;;;;;11.20;7.03;;;5.50;99.90;;;;;;5092659;28;20443;-87
2022/02/22 02:09:25;;;;;;;10.10;7.65;;;5.50;99.90;;;;;;5095499;28;20398;-91
2022/02/22 02:11:56;;;;;;;10.73;7.53;;;5.50;99.90;;;;;;5094616;28;20542;-87
2022/02/22 02:14:23;;;;;;;11.73;7.70;;;5.40;99.90;;;;;;5095367;28;20227;-91
2022/02/22 02:16:48;;;;;;;12.75;7.38;;;5.40;99.90;;;;;;5096944;28;20192;-90
2022/02/22 02:19:16;;;;;;;11.03;8.07;;;5.40;99.90;;;;;;5101666;28;20216;-91
2022/02/22 02:21:43;;;;;;;12.85;8.32;;;5.40;99.90;;;;;;5098858;28;20215;-90
2022/02/22 02:24:18;;;;;;;14.57;7.60;;;5.40;99.90;;;;;;5098843;28;20255;-87
2022/02/22 02:26:45;;;;;;;8.27;6.03;;;5.40;99.90;;;;;;5099324;28;20255;-87
2022/02/22 02:29:13;;;;;;;12.48;6.35;;;5.30;99.90;;;;;;5109342;28;20188;-88
2022/02/22 02:31:41;;;;;;;9.50;6.35;;;5.40;99.90;;;;;;5087674;28;20543;-90
2022/02/22 02:34:08;;;;;;;9.80;6.80;;;5.40;99.90;;;;;;5079855;28;20220;-86
2022/02/22 02:36:35;;;;;;;9.70;7.53;;;5.40;99.90;;;;;;5079722;28;20177;-87
2022/02/22 02:39:02;;;;;;;8.23;6.00;;;5.40;99.90;;;;;;5079647;28;20311;-91
2022/02/22 02:41:28;;;;;;;8.25;6.50;;;5.40;99.90;;;;;;5079700;28;20180;-92
2022/02/22 02:44:00;;;;;;;9.52;6.82;;;5.30;99.90;;;;;;5097574;28;20214;-86
2022/02/22 02:46:26;;;;;;;13.15;7.20;;;5.40;99.90;;;;;;5097292;28;20537;-91
2022/02/22 02:48:53;;;;;;;9.50;6.70;;;5.40;99.90;;;;;;5079263;28;20204;-87
2022/02/22 02:51:19;;;;;;;8.93;5.90;;;5.40;99.90;;;;;;5079309;28;20427;-90
2022/02/22 02:53:44;;;;;;;7.50;5.80;;;5.40;99.90;;;;;;5079609;28;20719;-91
2022/02/22 02:56:10;;;;;;;10.70;6.37;;;5.40;99.90;;;;;;5078892;28;20380;-87
2022/02/22 02:58:35;;;;;;;7.90;5.57;;;5.40;99.90;;;;;;5096936;28;20215;-87
2022/02/22 03:01:01;;;;;;;7.33;5.83;;;5.40;99.90;;;;;;5079463;28;20645;-90
2022/02/22 03:03:28;;;;;;;8.50;5.60;;;5.40;99.90;;;;;;5079404;28;20208;-86
2022/02/22 03:05:54;;;;;;;10.52;5.82;;;5.40;99.90;;;;;;5079392;28;20180;-86
2022/02/22 03:08:20;;;;;;;11.23;5.93;;;5.40;99.90;;;;;;5097803;28;20200;-91
2022/02/22 03:10:46;;;;;;;6.50;5.03;;;5.40;99.90;;;;;;5098868;28;20160;-87
2022/02/22 03:13:11;;;;;;;8.07;5.20;;;5.30;99.90;;;;;;5082869;28;20481;-89
2022/02/22 03:15:37;;;;;;;5.60;4.97;;;5.40;99.90;;;;;;5097618;28;20415;-91
2022/02/22 03:18:03;;;;;;;7.03;5.13;;;5.30;99.90;;;;;;5099761;28;20433;-88
2022/02/22 03:20:29;;;;;;;4.73;4.13;;;5.30;99.90;;;;;;5107108;28;20226;-87
2022/02/22 03:22:54;;;;;;;6.47;4.90;;;5.30;99.90;;;;;;5108846;28;20200;-87
2022/02/22 03:25:21;;;;;;;5.30;3.90;;;5.30;99.90;;;;;;5100873;28;20175;-87
2022/02/22 03:27:47;;;;;;;11.07;4.70;;;5.30;99.90;;;;;;5108931;28;20254;-87
2022/02/22 03:30:13;;;;;;;7.80;4.97;;;5.30;99.90;;;;;;5104714;28;20177;-90
2022/02/22 03:32:38;;;;;;;6.00;5.40;;;5.30;99.90;;;;;;5095278;28;20290;-91
2022/02/22 03:35:05;;;;;;;5.00;4.53;;;5.30;99.90;;;;;;5099670;28;20641;-87
2022/02/22 03:37:31;;;;;;;7.00;5.13;;;5.30;99.90;;;;;;5101606;28;20208;-87
2022/02/22 03:39:56;;;;;;;5.57;4.80;;;5.30;99.90;;;;;;5096465;28;20218;-91
2022/02/22 03:42:22;;;;;;;5.07;4.33;;;5.30;99.90;;;;;;5095322;28;20461;-87
2022/02/22 03:44:48;;;;;;;7.60;4.80;;;5.20;99.90;;;;;;5097465;28;20180;-87
2022/02/22 03:47:13;;;;;;;6.93;4.70;;;5.20;99.90;;;;;;5096389;28;20202;-88
2022/02/22 03:49:39;;;;;;;5.17;4.40;;;5.20;99.90;;;;;;5098245;28;20267;-87
2022/02/22 03:52:05;;;;;;;9.40;4.30;;;5.10;99.90;;;;;;5098318;28;20224;-91
2022/02/22 03:54:31;;;;;;;8.43;4.78;;;5.10;99.90;;;;;;5101478;28;20195;-91
2022/02/22 03:56:57;;;;;;;5.27;4.50;;;5.10;99.90;;;;;;5103724;28;20172;-91
2022/02/22 03:59:22;;;;;;;4.20;3.67;;;5.10;99.90;;;;;;5111524;28;20451;-91
2022/02/22 04:01:49;;;;;;;5.77;4.10;;;5.10;99.90;;;;;;5095425;28;20177;-87
2022/02/22 04:04:15;;;;;;;5.72;5.15;;;5.10;99.90;;;;;;5094348;28;20233;-86
2022/02/22 04:06:41;;;;;;;6.47;4.73;;;5.00;99.90;;;;;;5095456;28;20188;-91
2022/02/22 04:09:08;;;;;;;4.77;4.00;;;5.00;99.90;;;;;;5095029;28;20259;-91
2022/02/22 04:11:34;;;;;;;5.40;4.00;;;5.00;99.90;;;;;;5111485;28;20391;-90
2022/02/22 04:13:59;;;;;;;7.80;4.20;;;5.00;99.90;;;;;;5094307;28;20628;-86
2022/02/22 04:16:25;;;;;;;5.37;4.63;;;4.90;99.90;;;;;;5094185;28;20176;-91
2022/02/22 04:18:51;;;;;;;6.60;4.27;;;4.90;99.90;;;;;;5096010;28;20222;-87
2022/02/22 04:21:16;;;;;;;5.10;4.17;;;4.90;99.90;;;;;;5098003;28;20417;-86
2022/02/22 04:23:42;;;;;;;6.00;4.00;;;5.00;99.90;;;;;;5103356;28;20208;-87
2022/02/22 04:26:08;;;;;;;6.50;4.30;;;5.00;99.90;;;;;;5095787;28;20183;-87
2022/02/22 04:28:34;;;;;;;4.93;3.50;;;5.00;99.90;;;;;;5096154;28;20273;-87
2022/02/22 04:30:59;;;;;;;5.60;4.23;;;5.00;99.90;;;;;;5096031;28;20222;-86
2022/02/22 04:33:25;;;;;;;5.33;4.43;;;5.00;99.90;;;;;;5099665;28;20231;-87
2022/02/22 04:35:50;;;;;;;5.30;3.70;;;4.90;99.90;;;;;;5107655;28;20203;-86
2022/02/22 04:38:16;;;;;;;5.73;4.20;;;4.90;99.90;;;;;;5108890;28;20204;-87
2022/02/22 04:40:42;;;;;;;4.03;3.60;;;5.00;99.90;;;;;;5099910;28;20299;-91
2022/02/22 04:43:08;;;;;;;5.03;4.20;;;5.00;99.90;;;;;;5093727;28;20269;-89
2022/02/22 04:45:33;;;;;;;7.03;4.87;;;5.00;99.90;;;;;;5093709;28;20641;-87
2022/02/22 04:47:59;;;;;;;6.80;5.10;;;5.00;99.90;;;;;;5094197;28;20196;-87
2022/02/22 04:50:25;;;;;;;5.97;3.87;;;5.00;99.90;;;;;;5093755;28;20185;-91
2022/02/22 04:52:50;;;;;;;5.07;4.33;;;5.00;99.90;;;;;;5093348;28;20203;-87
2022/02/22 04:55:16;;;;;;;7.50;4.97;;;5.00;99.90;;;;;;5094888;28;20176;-90
2022/02/22 04:57:42;;;;;;;4.17;3.77;;;5.00;99.90;;;;;;5094612;28;20652;-88
2022/02/22 05:00:12;;;;;;;7.00;4.63;;;5.00;99.90;;;;;;5095248;28;20296;-87
2022/02/22 05:02:38;;;;;;;4.80;4.30;;;5.00;99.90;;;;;;5094208;28;20246;-89
2022/02/22 05:05:04;;;;;;;5.70;4.80;;;5.10;99.90;;;;;;5096431;28;20184;-86
2022/02/22 05:07:30;;;;;;;7.28;4.22;;;5.10;99.90;;;;;;5094499;28;20403;-90
2022/02/22 05:09:55;;;;;;;4.23;3.83;;;5.10;99.90;;;;;;5094943;28;20272;-91
2022/02/22 05:12:21;;;;;;;5.43;4.00;;;5.10;99.90;;;;;;5093956;28;20328;-91
2022/02/22 05:14:47;;;;;;;5.20;3.93;;;5.20;99.90;;;;;;5095347;28;20693;-87
2022/02/22 05:17:12;;;;;;;6.47;4.77;;;5.30;99.90;;;;;;5095950;28;20229;-90
2022/02/22 05:19:38;;;;;;;3.87;3.53;;;5.40;99.90;;;;;;5095965;28;20215;-91
2022/02/22 05:22:04;;;;;;;7.20;4.00;;;5.60;99.90;;;;;;5095654;28;20203;-91
2022/02/22 05:24:30;;;;;;;3.58;3.25;;;5.70;99.90;;;;;;5095050;28;20185;-87
2022/02/22 05:26:56;;;;;;;6.17;4.23;;;5.80;99.90;;;;;;5076980;28;20524;-87
2022/02/22 05:29:21;;;;;;;6.70;4.83;;;5.90;99.90;;;;;;5099671;28;20171;-87
2022/02/22 05:31:47;;;;;;;12.07;8.83;;;5.90;99.90;;;;;;5101028;28;20172;-91
2022/02/22 05:34:13;;;;;;;12.70;8.23;;;6.00;99.90;;;;;;5077695;28;20653;-90
2022/02/22 05:36:38;;;;;;;7.80;5.30;;;6.00;99.90;;;;;;5093648;28;20180;-87
2022/02/22 05:39:05;;;;;;;7.40;5.20;;;6.00;99.90;;;;;;5074519;28;20307;-91
2022/02/22 05:41:31;;;;;;;11.07;7.18;;;5.90;99.90;;;;;;5093699;28;20590;-87
2022/02/22 05:43:57;;;;;;;8.87;6.17;;;5.90;99.90;;;;;;5092292;28;20200;-90
2022/02/22 05:46:23;;;;;;;10.70;6.15;;;5.90;99.90;;;;;;5075743;28;20392;-90
2022/02/22 05:48:49;;;;;;;17.50;5.77;;;5.90;99.90;;;;;;5076475;28;20680;-91
2022/02/22 05:51:16;;;;;;;9.90;7.73;;;5.90;99.90;;;;;;5077418;28;20413;-88
2022/02/22 05:53:42;;;;;;;18.27;9.55;;;5.90;99.90;;;;;;5103284;28;20665;-91
2022/02/22 05:56:08;;;;;;;12.80;7.67;;;5.90;99.90;;;;;;5095218;28;20176;-90
2022/02/22 05:58:34;;;;;;;9.50;7.03;;;5.90;99.90;;;;;;5076081;28;20415;-91
2022/02/22 06:01:00;;;;;;;14.52;8.48;;;5.90;99.90;;;;;;5095544;28;20176;-91
2022/02/22 06:03:26;;;;;;;11.60;8.60;;;5.90;99.90;;;;;;5095967;28;20204;-87
2022/02/22 06:05:52;;;;;;;16.23;7.80;;;5.90;99.90;;;;;;5078223;28;20467;-91
2022/02/22 06:08:17;;;;;;;14.30;8.50;;;5.90;99.90;;;;;;5077480;28;20452;-87
2022/02/22 06:10:43;;;;;;;21.67;10.63;;;5.90;99.90;;;;;;5095018;28;20462;-91
2022/02/22 06:13:09;;;;;;;30.60;13.87;;;5.90;99.90;;;;;;5095266;28;20235;-87
2022/02/22 06:15:35;;;;;;;32.30;13.57;;;6.00;99.90;;;;;;5095629;28;20428;-90
2022/02/22 06:18:00;;;;;;;21.57;9.20;;;6.00;99.90;;;;;;5089053;28;20404;-91
2022/02/22 06:20:27;;;;;;;27.53;10.30;;;6.00;99.90;;;;;;5077892;28;20504;-91
2022/02/22 06:22:53;;;;;;;18.63;7.68;;;6.00;99.90;;;;;;5095584;28;20189;-86
2022/02/22 06:25:19;;;;;;;24.20;9.23;;;6.00;99.90;;;;;;5077539;28;20175;-91
2022/02/22 06:27:46;;;;;;;18.50;9.93;;;6.00;99.90;;;;;;5081370;28;20230;-87
2022/02/22 06:30:12;;;;;;;15.88;7.88;;;6.00;99.90;;;;;;5107903;28;20441;-87
2022/02/22 06:32:38;;;;;;;10.70;4.57;;;6.00;99.90;;;;;;5099983;28;20708;-91
2022/02/22 06:35:04;;;;;;;6.00;3.90;;;6.00;99.90;;;;;;5099272;28;20219;-91
2022/02/22 06:37:29;;;;;;;7.93;4.55;;;6.00;99.90;;;;;;5104751;28;20215;-87
2022/02/22 06:39:55;;;;;;;6.47;4.77;;;6.00;99.90;;;;;;5079214;28;20582;-90
2022/02/22 06:42:21;;;;;;;5.67;3.77;;;6.00;99.90;;;;;;5096253;28;20672;-87
2022/02/22 06:44:46;;;;;;;5.60;4.00;;;6.10;99.90;;;;;;5096402;28;20169;-87
2022/02/22 06:47:12;;;;;;;7.07;4.20;;;6.10;99.90;;;;;;5077759;28;20211;-91
2022/02/22 06:49:39;;;;;;;4.17;3.50;;;6.10;99.90;;;;;;5078203;28;20173;-92
2022/02/22 06:52:05;;;;;;;5.53;4.75;;;6.10;99.90;;;;;;5075350;28;20326;-86
2022/02/22 06:54:30;;;;;;;5.20;4.53;;;6.10;99.90;;;;;;5077617;28;20267;-91
2022/02/22 06:56:56;;;;;;;8.50;4.37;;;6.20;99.90;;;;;;5092052;28;20873;-88
2022/02/22 06:59:22;;;;;;;6.20;4.13;;;6.20;99.90;;;;;;5077949;28;20244;-87
2022/02/22 07:01:47;;;;;;;5.90;3.93;;;6.20;99.90;;;;;;5101786;28;20196;-87
2022/02/22 07:04:13;;;;;;;8.13;4.73;;;6.20;99.90;;;;;;5073532;28;20599;-87
2022/02/22 07:06:39;;;;;;;7.40;4.37;;;6.30;99.90;;;;;;5074875;28;20191;-90
2022/02/22 07:09:06;;;;;;;4.18;3.72;;;6.30;99.90;;;;;;5075494;28;20224;-86
2022/02/22 07:11:32;;;;;;;8.10;4.45;;;6.30;99.90;;;;;;5073192;28;20180;-87
2022/02/22 07:13:57;;;;;;;5.18;3.90;;;6.30;99.90;;;;;;5084808;28;20232;-91
2022/02/22 07:16:24;;;;;;;5.70;3.90;;;6.40;99.90;;;;;;5079382;28;20267;-90
2022/02/22 07:18:50;;;;;;;5.45;3.85;;;6.40;99.90;;;;;;5092656;28;20259;-90
2022/02/22 07:21:16;;;;;;;4.75;3.63;;;6.40;99.90;;;;;;5074729;28;20185;-91
2022/02/22 07:23:41;;;;;;;4.13;3.73;;;6.50;99.90;;;;;;5069611;28;20212;-90
2022/02/22 07:26:07;;;;;;;4.83;4.33;;;6.50;99.90;;;;;;5092094;28;20204;-87
2022/02/22 07:28:33;;;;;;;4.50;3.63;;;6.50;99.90;;;;;;5074177;28;20677;-87
2022/02/22 07:30:58;;;;;;;8.20;4.40;;;6.60;99.90;;;;;;5076470;28;20184;-86
2022/02/22 07:33:24;;;;;;;6.27;4.00;;;6.60;99.90;;;;;;5101224;28;20219;-88
2022/02/22 07:35:50;;;;;;;4.63;4.20;;;6.70;99.90;;;;;;5090492;28;20251;-87
2022/02/22 07:38:16;;;;;;;6.50;4.20;;;6.70;99.90;;;;;;5074680;28;20208;-86
2022/02/22 07:40:41;;;;;;;4.23;3.87;;;6.80;99.90;;;;;;5073895;28;20514;-86
2022/02/22 07:43:07;;;;;;;6.83;3.67;;;6.90;99.90;;;;;;5074902;28;20291;-87
2022/02/22 07:45:33;;;;;;;5.20;4.07;;;7.00;99.90;;;;;;5098080;28;20376;-86
2022/02/22 07:48:00;;;;;;;4.90;3.77;;;7.10;99.90;;;;;;5074335;28;20199;-87
2022/02/22 07:50:26;;;;;;;5.32;4.05;;;7.10;99.90;;;;;;5077167;28;20232;-90
2022/02/22 07:52:52;;;;;;;6.73;4.30;;;7.20;99.90;;;;;;5078548;28;20295;-86
2022/02/22 07:55:18;;;;;;;5.23;4.53;;;7.20;99.90;;;;;;5075678;28;20187;-87
2022/02/22 07:57:44;;;;;;;5.23;4.47;;;7.30;99.90;;;;;;5094508;28;20594;-88
2022/02/22 08:00:10;;;;;;;5.55;4.38;;;7.30;99.90;;;;;;5093207;28;20496;-87
2022/02/22 08:02:36;;;;;;;5.20;4.28;;;7.40;99.90;;;;;;5094604;28;20197;-87
2022/02/22 08:05:03;;;;;;;4.90;3.70;;;7.40;99.90;;;;;;5113102;28;20177;-90
2022/02/22 08:07:29;;;;;;;7.47;4.47;;;7.50;99.90;;;;;;5071635;28;20228;-91
2022/02/22 08:09:55;;;;;;;4.50;3.83;;;7.60;99.90;;;;;;5073979;28;20238;-90
2022/02/22 08:12:20;;;;;;;4.03;3.73;;;7.70;99.90;;;;;;5091604;28;20427;-91
2022/02/22 08:14:46;;;;;;;4.23;3.70;;;7.80;99.90;;;;;;5091878;28;20301;-91
2022/02/22 08:17:12;;;;;;;5.57;3.90;;;8.00;99.90;;;;;;5094762;28;20204;-91
2022/02/22 08:19:38;;;;;;;5.90;3.60;;;8.30;99.90;;;;;;5086818;28;20551;-87
2022/02/22 08:22:04;;;;;;;5.27;3.93;;;8.60;99.90;;;;;;5088886;28;20736;-87
2022/02/22 08:24:30;;;;;;;5.10;4.40;;;9.00;99.90;;;;;;5093983;28;20649;-91
2022/02/22 08:26:57;;;;;;;7.27;4.20;;;9.40;99.90;;;;;;5092535;28;20200;-91
2022/02/22 08:29:24;;;;;;;12.48;8.18;;;9.60;99.90;;;;;;5096238;28;20192;-91
2022/02/22 08:31:50;;;;;;;18.38;11.15;;;9.80;99.90;;;;;;5099729;28;20187;-91
2022/02/22 08:34:17;;;;;;;19.15;12.88;;;9.90;99.90;;;;;;5087645;28;20184;-91
2022/02/22 08:36:43;;;;;;;8.18;6.30;;;10.20;99.90;;;;;;5091638;28;20202;-91
2022/02/22 08:39:09;;;;;;;5.38;3.75;;;10.90;99.90;;;;;;5089784;28;20208;-92
2022/02/22 08:41:35;;;;;;;5.70;4.63;;;12.00;99.90;;;;;;5096142;28;20181;-90
2022/02/22 08:44:04;;;;;;;3.13;2.63;;;13.20;99.90;;;;;;5106073;28;20302;-90
2022/02/22 08:46:30;;;;;;;4.18;2.85;;;14.30;99.90;;;;;;5105148;28;20180;-89
2022/02/22 08:48:56;;;;;;;3.97;2.97;;;15.20;99.90;;;;;;5090624;28;20269;-90
2022/02/22 08:51:22;;;;;;;3.53;3.27;;;16.10;99.90;;;;;;5093757;28;20913;-90
2022/02/22 08:53:48;;;;;;;3.13;2.43;;;16.90;99.90;;;;;;5093466;28;20211;-90
2022/02/22 08:56:14;;;;;;;2.43;2.23;;;17.60;99.90;;;;;;5091407;28;20246;-89
2022/02/22 08:58:40;;;;;;;2.63;2.07;;;18.10;96.50;;;;;;5089570;28;20212;-90
2022/02/22 09:01:06;;;;;;;4.00;2.20;;;18.30;95.00;;;;;;5088927;28;20421;-86
2022/02/22 09:03:32;;;;;;;3.33;2.20;;;18.40;94.20;;;;;;5091489;28;20957;-86
2022/02/22 09:05:59;;;;;;;2.50;2.07;;;18.30;93.40;;;;;;5099408;28;20379;-86
2022/02/22 09:08:26;;;;;;;4.53;2.63;;;18.30;92.20;;;;;;5086150;28;20453;-87
2022/02/22 09:10:52;;;;;;;3.40;2.13;;;18.60;91.90;;;;;;5087161;28;20867;-86
2022/02/22 09:13:17;;;;;;;2.03;1.90;;;18.80;90.80;;;;;;5087512;28;20477;-86
2022/02/22 09:15:44;;;;;;;5.47;2.33;;;19.00;90.80;;;;;;5098906;28;20192;-87
2022/02/22 09:18:11;;;;;;;1.83;1.73;;;19.40;90.40;;;;;;5090250;28;20432;-87
2022/02/22 09:20:37;;;;;;;2.00;1.80;;;19.90;89.10;;;;;;5085692;28;20527;-86
2022/02/22 09:23:03;;;;;;;2.03;1.80;;;20.30;86.10;;;;;;5086880;28;20457;-87
2022/02/22 09:25:33;;;;;;;2.33;1.80;;;20.60;83.50;;;;;;5085938;28;20443;-87
2022/02/22 09:28:05;;;;;;;5.60;2.50;;;20.70;81.80;;;;;;5087880;28;20551;-90
2022/02/22 09:30:31;;;;;;;3.70;3.40;;;20.80;81.00;;;;;;5099231;28;20442;-91
2022/02/22 09:32:57;;;;;;;2.50;1.80;;;20.90;80.50;;;;;;5088438;28;20451;-90
2022/02/22 09:35:25;;;;;;;1.90;1.57;;;21.00;80.80;;;;;;5091761;28;20410;-91
2022/02/22 09:37:51;;;;;;;1.47;1.37;;;21.20;80.20;;;;;;5088515;28;21133;-87
2022/02/22 09:40:20;;;;;;;2.30;2.00;;;21.40;79.00;;;;;;5086344;28;21014;-87
2022/02/22 09:42:46;;;;;;;2.80;2.60;;;21.40;78.00;;;;;;5089901;28;20473;-88
2022/02/22 09:45:13;;;;;;;2.73;2.53;;;21.20;76.60;;;;;;5092907;28;20976;-87
2022/02/22 09:47:40;;;;;;;3.10;2.23;;;20.80;76.30;;;;;;5084781;28;20212;-87
2022/02/22 09:50:07;;;;;;;1.87;1.73;;;20.40;76.10;;;;;;5085124;28;20973;-87
2022/02/22 09:52:33;;;;;;;1.47;1.37;;;19.90;78.50;;;;;;5082414;28;20437;-87
2022/02/22 09:54:59;;;;;;;2.00;1.90;;;19.60;79.10;;;;;;5090367;28;20956;-89
2022/02/22 09:57:25;;;;;;;2.70;2.30;;;19.50;80.50;;;;;;5085598;28;20552;-91
2022/02/22 09:59:51;;;;;;;2.60;1.60;;;19.40;80.60;;;;;;5095369;28;20496;-92
2022/02/22 10:02:17;;;;;;;4.40;2.97;;;19.50;78.80;;;;;;5090815;28;20953;-87
2022/02/22 10:04:47;;;;;;;2.50;2.30;;;19.50;79.50;;;;;;5085559;28;20177;-91
2022/02/22 10:07:15;;;;;;;2.77;2.30;;;19.60;78.80;;;;;;5087583;28;20203;-92
2022/02/22 10:09:54;;;;;;;2.40;2.20;;;19.70;78.20;;;;;;5092775;28;20420;-92
2022/02/22 10:12:38;;;;;;;1.60;1.50;;;19.70;79.00;;;;;;5091476;28;20961;-92
2022/02/22 10:15:06;;;;;;;2.10;1.90;;;19.70;77.50;;;;;;5080329;28;20464;-89
2022/02/22 10:17:39;;;;;;;1.73;1.40;;;19.50;77.70;;;;;;5093059;28;20502;-89
2022/02/22 10:20:08;;;;;;;2.43;1.63;;;19.20;77.20;;;;;;5088634;28;20852;-90
2022/02/22 10:22:44;;;;;;;2.03;1.83;;;18.80;78.00;;;;;;5089651;28;20529;-90
2022/02/22 10:25:10;;;;;;;2.20;1.80;;;18.30;77.10;;;;;;5088241;28;20490;-89
2022/02/22 10:27:50;;;;;;;2.63;2.20;;;17.80;79.10;;;;;;5092236;28;20444;-89
2022/02/22 10:30:40;;;;;;;6.27;1.30;;;17.40;80.10;;;;;;5094420;28;20479;-90
2022/02/22 10:33:27;;;;;;;2.40;1.67;;;16.90;81.20;;;;;;5091278;28;20454;-90
2022/02/22 10:35:58;;;;;;;2.60;1.50;;;16.60;81.50;;;;;;5085628;28;20440;-90
2022/02/22 10:38:26;;;;;;;4.63;3.30;;;16.40;82.50;;;;;;5084728;28;20452;-86
2022/02/22 10:40:57;;;;;;;2.60;1.90;;;16.20;81.70;;;;;;5121526;27;21083;-86
2022/02/22 10:43:27;;;;;;;6.27;3.13;;;16.00;83.70;;;;;;5093303;28;20460;-90
2022/02/22 10:45:55;;;;;;;1.93;1.60;;;15.90;85.60;;;;;;5095863;28;20476;-86
2022/02/22 10:48:31;;;;;;;2.80;1.70;;;15.80;83.60;;;;;;5094239;28;20482;-87
2022/02/22 10:50:57;;;;;;;3.87;1.70;;;15.60;85.30;;;;;;5096119;28;20416;-89
2022/02/22 10:53:47;;;;;;;4.80;2.00;;;15.40;85.40;;;;;;5100827;28;20452;-89
2022/02/22 10:56:17;;;;;;;4.60;2.60;;;15.20;86.30;;;;;;5107680;28;20489;-91
2022/02/22 10:58:44;;;;;;;1.80;1.53;;;15.00;86.80;;;;;;5094949;28;20415;-91
2022/02/22 11:01:19;;;;;;;3.63;1.90;;;15.00;86.90;;;;;;5099552;28;20400;-87
2022/02/22 11:03:46;;;;;;;5.93;2.60;;;14.90;86.60;;;;;;5089359;28;20571;-91
2022/02/22 11:06:14;;;;;;;3.33;2.47;;;14.80;87.30;;;;;;5092658;28;20420;-90
2022/02/22 11:08:43;;;;;;;9.97;2.70;;;14.60;87.00;;;;;;5092593;28;20815;-91
2022/02/22 11:11:15;;;;;;;1.90;1.80;;;14.50;87.40;;;;;;5094125;28;20417;-91
2022/02/22 11:13:41;;;;;;;5.77;1.97;;;14.50;87.60;;;;;;5091534;28;20512;-91
2022/02/22 11:16:17;;;;;;;3.03;1.40;;;14.40;87.90;;;;;;5088349;28;20967;-87
2022/02/22 11:18:47;;;;;;;3.97;2.07;;;14.30;86.60;;;;;;5094667;28;20560;-91
2022/02/22 11:21:14;;;;;;;4.20;2.23;;;14.10;87.60;;;;;;5089314;28;20418;-91
2022/02/22 11:23:40;;;;;;;5.30;2.30;;;14.00;89.40;;;;;;5092270;28;20456;-91
2022/02/22 11:26:13;;;;;;;1.87;1.77;;;13.90;88.60;;;;;;5097752;28;20812;-87
2022/02/22 11:28:51;;;;;;;2.70;2.10;;;13.90;88.90;;;;;;5090858;28;20805;-91
2022/02/22 11:31:21;;;;;;;2.03;1.67;;;13.90;90.10;;;;;;5078720;28;20405;-91
2022/02/22 11:33:51;;;;;;;3.83;1.80;;;14.00;90.20;;;;;;5093602;28;20509;-86
2022/02/22 11:36:32;;;;;;;2.00;1.73;;;14.00;88.30;;;;;;5092615;28;20419;-87
2022/02/22 11:38:59;;;;;;;3.33;2.20;;;14.10;89.50;;;;;;5088366;28;20545;-86
2022/02/22 11:41:27;;;;;;;3.63;1.80;;;14.10;89.60;;;;;;5088536;28;21005;-87
2022/02/22 11:44:00;;;;;;;4.80;1.83;;;14.20;89.00;;;;;;5081281;28;20476;-86
2022/02/22 11:46:42;;;;;;;6.40;1.70;;;14.20;88.30;;;;;;5102172;27;20395;-87
2022/02/22 11:49:20;;;;;;;4.50;2.03;;;14.20;88.10;;;;;;5100337;28;20423;-86
2022/02/22 11:51:48;;;;;;;4.53;2.00;;;14.30;88.50;;;;;;5083227;28;20429;-85
2022/02/22 11:54:21;;;;;;;5.10;2.30;;;14.30;87.50;;;;;;5085898;28;20411;-85
2022/02/22 11:56:59;;;;;;;4.20;2.00;;;14.30;88.50;;;;;;5083910;28;20782;-86
2022/02/22 11:59:25;;;;;;;3.03;2.20;;;14.30;89.60;;;;;;5091263;28;20606;-86
2022/02/22 12:01:57;;;;;;;2.00;1.60;;;14.40;88.50;;;;;;5082149;28;20482;-86
2022/02/22 12:04:28;;;;;;;4.23;1.83;;;14.40;88.00;;;;;;5083165;28;20424;-86
2022/02/22 12:06:56;;;;;;;6.97;1.93;;;14.40;87.30;;;;;;5086506;28;20417;-86
2022/02/22 12:09:34;;;;;;;1.67;1.57;;;14.30;87.80;;;;;;5087931;28;20435;-86
2022/02/22 12:12:09;;;;;;;3.20;1.67;;;14.20;88.60;;;;;;5082658;28;20434;-85
2022/02/22 12:14:36;;;;;;;3.10;1.90;;;14.20;88.30;;;;;;5085996;28;20470;-85
2022/02/22 12:17:09;;;;;;;3.67;1.77;;;14.20;89.00;;;;;;5090643;28;20477;-89
2022/02/22 12:19:35;;;;;;;2.40;1.80;;;14.20;88.10;;;;;;5099027;28;20471;-88
2022/02/22 12:22:04;;;;;;;4.87;1.70;;;14.20;88.10;;;;;;5093505;28;20838;-86
2022/02/22 12:24:30;;;;;;;2.53;1.90;;;14.20;88.40;;;;;;5089471;28;20421;-87
2022/02/22 12:26:56;;;;;;;3.20;2.10;;;14.10;88.50;;;;;;5088803;28;20486;-87
2022/02/22 12:29:25;;;;;;;4.27;2.70;;;14.10;88.00;;;;;;5087338;28;20417;-90
2022/02/22 12:31:55;;;;;;;4.33;1.50;;;14.00;89.40;;;;;;5100569;28;20229;-90
2022/02/22 12:34:26;;;;;;;1.83;1.47;;;13.90;88.00;;;;;;5088786;28;20461;-90
2022/02/22 12:36:54;;;;;;;5.67;2.47;;;13.90;88.90;;;;;;5092282;28;20432;-91
2022/02/22 12:39:23;;;;;;;4.33;2.90;;;13.90;89.90;;;;;;5093688;28;20887;-87
2022/02/22 12:41:57;;;;;;;4.83;2.10;;;14.00;89.10;;;;;;5086944;28;20497;-87
2022/02/22 12:44:25;;;;;;;5.30;2.33;;;14.00;88.10;;;;;;5086199;28;20440;-86
2022/02/22 12:46:53;;;;;;;6.63;1.97;;;14.00;88.40;;;;;;5090432;28;20948;-86
2022/02/22 12:49:20;;;;;;;3.90;1.67;;;14.00;88.20;;;;;;5091736;28;20421;-87
2022/02/22 12:51:53;;;;;;;5.30;2.20;;;13.90;87.00;;;;;;5095752;28;20425;-87